RYR1JY EGSS-EIDW
Flight info
| Callsign | RYR1JY |
|---|---|
| Flight time | 1h 3m |
| Altitude | 24000 |
| Route | NUGBO M183 SILVA/N0435F340 P86 DIDZA N14 OKSAW DCT BIBPE DCT OKTAD DCT MEDOG DCT KRAGY DCT PEMOB M17 VATRY VATRY4L |
| Aircraft | B738/M-SDE2E3FGHIRWXY/LB1 |
Departure
| Time | 2026-05-07 19:27 |
|---|---|
| Airport | London Stansted Airport (EGSS) |
Arrival
| Time | 2026-05-07 20:30 |
|---|---|
| Airport | Dublin Airport (EIDW) |
| Time | Latitude | Longitude | Altitude | Speed | Heading |
|---|---|---|---|---|---|
| 2026-05-07 18:38 | 51.89127 | 0.25565 | 348 ft | 0 kts | 42° |
| 2026-05-07 19:07 | 51.89123 | 0.25559 | 358 ft | 2 kts | 43° |
| 2026-05-07 19:08 | 51.89113 | 0.25544 | 359 ft | 2 kts | 43° |
| 2026-05-07 19:08 | 51.89103 | 0.25529 | 355 ft | 1 kts | 43° |
| 2026-05-07 19:08 | 51.89094 | 0.25515 | 358 ft | 1 kts | 39° |
| 2026-05-07 19:08 | 51.89083 | 0.25506 | 355 ft | 2 kts | 350° |
| 2026-05-07 19:09 | 51.89072 | 0.25514 | 356 ft | 2 kts | 322° |
| 2026-05-07 19:09 | 51.89062 | 0.25527 | 353 ft | 2 kts | 314° |
| 2026-05-07 19:09 | 51.89054 | 0.25542 | 356 ft | 2 kts | 311° |
| 2026-05-07 19:09 | 51.89045 | 0.25557 | 357 ft | 2 kts | 315° |
| 2026-05-07 19:10 | 51.89037 | 0.25572 | 358 ft | 2 kts | 313° |
| 2026-05-07 19:10 | 51.89028 | 0.25587 | 360 ft | 2 kts | 314° |
| 2026-05-07 19:10 | 51.89022 | 0.25597 | 359 ft | 0 kts | 314° |
| 2026-05-07 19:11 | 51.89022 | 0.25596 | 358 ft | 0 kts | 314° |
| 2026-05-07 19:16 | 51.89027 | 0.25589 | 358 ft | 3 kts | 313° |
| 2026-05-07 19:16 | 51.89043 | 0.25560 | 353 ft | 4 kts | 313° |
| 2026-05-07 19:16 | 51.89061 | 0.25530 | 350 ft | 4 kts | 313° |
| 2026-05-07 19:17 | 51.89083 | 0.25492 | 353 ft | 6 kts | 313° |
| 2026-05-07 19:17 | 51.89120 | 0.25426 | 352 ft | 10 kts | 311° |
| 2026-05-07 19:17 | 51.89167 | 0.25336 | 348 ft | 10 kts | 298° |
| 2026-05-07 19:17 | 51.89148 | 0.25239 | 349 ft | 10 kts | 226° |
| 2026-05-07 19:18 | 51.89099 | 0.25164 | 351 ft | 10 kts | 223° |
| 2026-05-07 19:18 | 51.89051 | 0.25092 | 355 ft | 9 kts | 223° |
| 2026-05-07 19:18 | 51.89004 | 0.25021 | 353 ft | 9 kts | 223° |
| 2026-05-07 19:18 | 51.88959 | 0.24953 | 348 ft | 9 kts | 223° |
| 2026-05-07 19:19 | 51.88903 | 0.24869 | 351 ft | 13 kts | 223° |
| 2026-05-07 19:19 | 51.88822 | 0.24748 | 348 ft | 18 kts | 223° |
| 2026-05-07 19:19 | 51.88724 | 0.24600 | 351 ft | 20 kts | 223° |
| 2026-05-07 19:19 | 51.88623 | 0.24449 | 348 ft | 19 kts | 223° |
| 2026-05-07 19:20 | 51.88527 | 0.24305 | 355 ft | 19 kts | 223° |
| 2026-05-07 19:20 | 51.88434 | 0.24164 | 348 ft | 18 kts | 223° |
| 2026-05-07 19:20 | 51.88344 | 0.24030 | 350 ft | 17 kts | 223° |
| 2026-05-07 19:20 | 51.88256 | 0.23898 | 352 ft | 17 kts | 223° |
| 2026-05-07 19:21 | 51.88173 | 0.23772 | 348 ft | 16 kts | 223° |
| 2026-05-07 19:21 | 51.88092 | 0.23653 | 351 ft | 15 kts | 222° |
| 2026-05-07 19:21 | 51.88015 | 0.23536 | 348 ft | 15 kts | 222° |
| 2026-05-07 19:21 | 51.87941 | 0.23426 | 351 ft | 14 kts | 223° |
| 2026-05-07 19:22 | 51.87871 | 0.23319 | 355 ft | 14 kts | 223° |
| 2026-05-07 19:22 | 51.87802 | 0.23217 | 348 ft | 13 kts | 223° |
| 2026-05-07 19:22 | 51.87740 | 0.23121 | 351 ft | 11 kts | 230° |
| 2026-05-07 19:22 | 51.87746 | 0.23011 | 355 ft | 11 kts | 309° |
| 2026-05-07 19:23 | 51.87794 | 0.22924 | 353 ft | 10 kts | 312° |
| 2026-05-07 19:23 | 51.87842 | 0.22841 | 347 ft | 9 kts | 313° |
| 2026-05-07 19:23 | 51.87854 | 0.22820 | 347 ft | 0 kts | 312° |
| 2026-05-07 19:25 | 51.87857 | 0.22814 | 346 ft | 3 kts | 312° |
| 2026-05-07 19:25 | 51.87898 | 0.22741 | 346 ft | 15 kts | 312° |
| 2026-05-07 19:25 | 51.87964 | 0.22686 | 341 ft | 9 kts | 19° |
| 2026-05-07 19:26 | 51.88023 | 0.22764 | 337 ft | 15 kts | 42° |
| 2026-05-07 19:26 | 51.88300 | 0.23180 | 335 ft | 94 kts | 43° |
| 2026-05-07 19:26 | 51.88699 | 0.23778 | 336 ft | 140 kts | 43° |
| 2026-05-07 19:26 | 51.89826 | 0.25499 | 914 ft | 174 kts | 47° |
| 2026-05-07 19:27 | 51.90689 | 0.26829 | 1744 ft | 178 kts | 47° |
| 2026-05-07 19:27 | 51.91291 | 0.27760 | 2224 ft | 177 kts | 47° |
| 2026-05-07 19:27 | 51.92228 | 0.29068 | 2861 ft | 182 kts | 34° |
| 2026-05-07 19:27 | 51.93840 | 0.29887 | 3680 ft | 188 kts | 2° |
| 2026-05-07 19:28 | 51.94742 | 0.29749 | 3848 ft | 203 kts | 344° |
| 2026-05-07 19:28 | 51.96035 | 0.28686 | 4008 ft | 218 kts | 317° |
| 2026-05-07 19:28 | 51.96901 | 0.26596 | 4175 ft | 230 kts | 287° |
| 2026-05-07 19:28 | 51.97259 | 0.24007 | 4439 ft | 238 kts | 277° |
| 2026-05-07 19:29 | 51.97484 | 0.21361 | 4845 ft | 239 kts | 278° |
| 2026-05-07 19:29 | 51.97713 | 0.18723 | 4965 ft | 234 kts | 277° |
| 2026-05-07 19:29 | 51.97948 | 0.16112 | 4996 ft | 234 kts | 278° |
| 2026-05-07 19:29 | 51.98206 | 0.13492 | 5008 ft | 238 kts | 279° |
| 2026-05-07 19:30 | 51.98488 | 0.10794 | 5300 ft | 241 kts | 279° |
| 2026-05-07 19:30 | 51.98770 | 0.08160 | 5813 ft | 238 kts | 279° |
| 2026-05-07 19:30 | 51.98916 | 0.05492 | 6203 ft | 239 kts | 264° |
| 2026-05-07 19:30 | 51.98626 | 0.02825 | 6632 ft | 241 kts | 258° |
| 2026-05-07 19:31 | 51.98251 | 0.00149 | 7001 ft | 242 kts | 257° |
| 2026-05-07 19:31 | 51.97887 | -0.02496 | 7351 ft | 245 kts | 258° |
| 2026-05-07 19:31 | 51.97520 | -0.05231 | 7686 ft | 248 kts | 258° |
| 2026-05-07 19:31 | 51.97163 | -0.07934 | 8025 ft | 245 kts | 257° |
| 2026-05-07 19:32 | 51.96808 | -0.10638 | 8035 ft | 243 kts | 257° |
| 2026-05-07 19:32 | 51.96459 | -0.13305 | 8056 ft | 246 kts | 257° |
| 2026-05-07 19:32 | 51.96100 | -0.16049 | 8062 ft | 248 kts | 257° |
| 2026-05-07 19:32 | 51.95740 | -0.18797 | 8301 ft | 252 kts | 257° |
| 2026-05-07 19:33 | 51.95375 | -0.21584 | 8698 ft | 253 kts | 257° |
| 2026-05-07 19:33 | 51.95013 | -0.24352 | 9068 ft | 253 kts | 257° |
| 2026-05-07 19:33 | 51.94643 | -0.27167 | 9383 ft | 256 kts | 257° |
| 2026-05-07 19:33 | 51.94273 | -0.29980 | 9763 ft | 256 kts | 257° |
| 2026-05-07 19:34 | 51.93901 | -0.32801 | 10044 ft | 259 kts | 257° |
| 2026-05-07 19:34 | 51.93522 | -0.35671 | 10349 ft | 260 kts | 257° |
| 2026-05-07 19:34 | 51.93145 | -0.38522 | 10651 ft | 261 kts | 256° |
| 2026-05-07 19:34 | 51.92761 | -0.41420 | 10936 ft | 262 kts | 256° |
| 2026-05-07 19:35 | 51.92379 | -0.44291 | 11232 ft | 263 kts | 256° |
| 2026-05-07 19:35 | 51.91991 | -0.47207 | 11527 ft | 265 kts | 256° |
| 2026-05-07 19:35 | 51.91606 | -0.50102 | 11819 ft | 265 kts | 256° |
| 2026-05-07 19:35 | 51.91211 | -0.53057 | 12102 ft | 266 kts | 256° |
| 2026-05-07 19:36 | 51.90820 | -0.55978 | 12387 ft | 267 kts | 256° |
| 2026-05-07 19:36 | 51.90426 | -0.58913 | 12650 ft | 269 kts | 256° |
| 2026-05-07 19:36 | 51.90026 | -0.61892 | 12924 ft | 270 kts | 256° |
| 2026-05-07 19:36 | 51.89625 | -0.64864 | 13192 ft | 271 kts | 256° |
| 2026-05-07 19:37 | 51.89223 | -0.67844 | 13447 ft | 272 kts | 256° |
| 2026-05-07 19:37 | 51.88816 | -0.70854 | 13708 ft | 273 kts | 256° |
| 2026-05-07 19:37 | 51.88411 | -0.73847 | 13946 ft | 274 kts | 256° |
| 2026-05-07 19:37 | 51.87998 | -0.76890 | 14186 ft | 275 kts | 256° |
| 2026-05-07 19:38 | 51.87589 | -0.79891 | 14412 ft | 275 kts | 256° |
| 2026-05-07 19:38 | 51.87174 | -0.82940 | 14650 ft | 276 kts | 256° |
| 2026-05-07 19:38 | 51.86762 | -0.85963 | 14852 ft | 276 kts | 256° |
| 2026-05-07 19:38 | 51.86349 | -0.88984 | 15073 ft | 277 kts | 256° |
| 2026-05-07 19:39 | 51.85933 | -0.92013 | 15287 ft | 277 kts | 256° |
| 2026-05-07 19:39 | 51.85509 | -0.95096 | 15500 ft | 278 kts | 256° |
| 2026-05-07 19:39 | 51.85067 | -0.98115 | 15694 ft | 278 kts | 250° |
| 2026-05-07 19:39 | 51.84262 | -1.00931 | 15869 ft | 278 kts | 237° |
| 2026-05-07 19:40 | 51.83072 | -1.03414 | 16066 ft | 278 kts | 226° |
| 2026-05-07 19:40 | 51.81724 | -1.05643 | 16251 ft | 279 kts | 225° |
| 2026-05-07 19:40 | 51.80342 | -1.07864 | 16444 ft | 279 kts | 225° |
| 2026-05-07 19:40 | 51.78964 | -1.10075 | 16636 ft | 280 kts | 225° |
| 2026-05-07 19:41 | 51.77594 | -1.12281 | 16800 ft | 281 kts | 225° |
| 2026-05-07 19:41 | 51.76213 | -1.14515 | 16970 ft | 282 kts | 225° |
| 2026-05-07 19:41 | 51.74817 | -1.16779 | 17154 ft | 282 kts | 225° |
| 2026-05-07 19:41 | 51.73437 | -1.19019 | 17323 ft | 283 kts | 225° |
| 2026-05-07 19:42 | 51.72041 | -1.21285 | 17522 ft | 284 kts | 225° |
| 2026-05-07 19:42 | 51.70653 | -1.23539 | 17677 ft | 285 kts | 225° |
| 2026-05-07 19:42 | 51.69260 | -1.25800 | 17838 ft | 286 kts | 225° |
| 2026-05-07 19:42 | 51.67849 | -1.28090 | 17998 ft | 286 kts | 225° |
| 2026-05-07 19:43 | 51.66457 | -1.30347 | 18154 ft | 287 kts | 225° |
| 2026-05-07 19:43 | 51.65041 | -1.32638 | 18306 ft | 288 kts | 225° |
| 2026-05-07 19:43 | 51.63632 | -1.34914 | 18433 ft | 288 kts | 225° |
| 2026-05-07 19:43 | 51.62397 | -1.37466 | 18533 ft | 289 kts | 245° |
| 2026-05-07 19:44 | 51.61917 | -1.40580 | 18618 ft | 292 kts | 267° |
| 2026-05-07 19:44 | 51.62209 | -1.43791 | 18724 ft | 296 kts | 289° |
| 2026-05-07 19:44 | 51.63114 | -1.46800 | 18850 ft | 298 kts | 296° |
| 2026-05-07 19:44 | 51.64100 | -1.49707 | 18953 ft | 299 kts | 296° |
| 2026-05-07 19:45 | 51.65114 | -1.52664 | 19063 ft | 300 kts | 296° |
| 2026-05-07 19:45 | 51.66111 | -1.55599 | 19188 ft | 300 kts | 296° |
| 2026-05-07 19:45 | 51.67108 | -1.58566 | 19304 ft | 300 kts | 296° |
| 2026-05-07 19:45 | 51.68095 | -1.61530 | 19407 ft | 301 kts | 295° |
| 2026-05-07 19:46 | 51.69081 | -1.64502 | 19521 ft | 301 kts | 295° |
| 2026-05-07 19:46 | 51.70031 | -1.67540 | 19640 ft | 301 kts | 289° |
| 2026-05-07 19:46 | 51.70614 | -1.70723 | 19730 ft | 299 kts | 277° |
| 2026-05-07 19:46 | 51.70872 | -1.74055 | 19842 ft | 298 kts | 274° |
| 2026-05-07 19:47 | 51.71090 | -1.77361 | 19933 ft | 299 kts | 274° |
| 2026-05-07 19:47 | 51.71319 | -1.80711 | 20034 ft | 299 kts | 274° |
| 2026-05-07 19:47 | 51.71553 | -1.84027 | 20139 ft | 300 kts | 275° |
| 2026-05-07 19:47 | 51.71890 | -1.87342 | 20225 ft | 301 kts | 279° |
| 2026-05-07 19:48 | 51.72360 | -1.90634 | 20334 ft | 302 kts | 281° |
| 2026-05-07 19:48 | 51.72872 | -1.93960 | 20414 ft | 303 kts | 282° |
| 2026-05-07 19:48 | 51.73379 | -1.97229 | 20510 ft | 303 kts | 282° |
| 2026-05-07 19:48 | 51.73883 | -2.00518 | 20601 ft | 303 kts | 281° |
| 2026-05-07 19:49 | 51.74389 | -2.03859 | 20685 ft | 304 kts | 281° |
| 2026-05-07 19:49 | 51.74882 | -2.07148 | 20761 ft | 304 kts | 281° |
| 2026-05-07 19:49 | 51.75382 | -2.10513 | 20785 ft | 310 kts | 281° |
| 2026-05-07 19:49 | 51.75883 | -2.13914 | 20832 ft | 316 kts | 281° |
| 2026-05-07 19:50 | 51.76398 | -2.17413 | 20883 ft | 322 kts | 281° |
| 2026-05-07 19:50 | 51.76914 | -2.20936 | 20931 ft | 328 kts | 281° |
| 2026-05-07 19:50 | 51.77447 | -2.24578 | 20976 ft | 333 kts | 281° |
| 2026-05-07 19:50 | 51.77978 | -2.28218 | 21031 ft | 337 kts | 281° |
| 2026-05-07 19:51 | 51.78514 | -2.31902 | 21099 ft | 339 kts | 281° |
| 2026-05-07 19:51 | 51.79048 | -2.35575 | 21538 ft | 329 kts | 281° |
| 2026-05-07 19:51 | 51.79560 | -2.39104 | 22024 ft | 319 kts | 281° |
| 2026-05-07 19:51 | 51.80062 | -2.42574 | 22545 ft | 309 kts | 281° |
| 2026-05-07 19:52 | 51.80541 | -2.45883 | 23049 ft | 300 kts | 280° |
| 2026-05-07 19:52 | 51.81006 | -2.49114 | 23590 ft | 289 kts | 280° |
| 2026-05-07 19:52 | 51.81450 | -2.52210 | 24088 ft | 273 kts | 280° |
| 2026-05-07 19:52 | 51.81862 | -2.55082 | 24517 ft | 259 kts | 279° |
| 2026-05-07 19:53 | 51.82254 | -2.57925 | 24744 ft | 254 kts | 279° |
| 2026-05-07 19:53 | 51.82627 | -2.60665 | 24971 ft | 247 kts | 279° |
| 2026-05-07 19:53 | 51.82988 | -2.63328 | 25169 ft | 242 kts | 278° |
| 2026-05-07 19:53 | 51.83348 | -2.66004 | 25115 ft | 249 kts | 279° |
| 2026-05-07 19:54 | 51.83720 | -2.68771 | 25137 ft | 251 kts | 279° |
| 2026-05-07 19:54 | 51.84090 | -2.71524 | 25142 ft | 254 kts | 279° |
| 2026-05-07 19:54 | 51.84469 | -2.74342 | 25154 ft | 257 kts | 279° |
| 2026-05-07 19:54 | 51.84848 | -2.77166 | 25143 ft | 260 kts | 279° |
| 2026-05-07 19:55 | 51.85239 | -2.80074 | 25119 ft | 265 kts | 279° |
| 2026-05-07 19:55 | 51.85631 | -2.83006 | 25092 ft | 271 kts | 279° |
| 2026-05-07 19:55 | 51.86040 | -2.86074 | 24839 ft | 289 kts | 279° |
| 2026-05-07 19:55 | 51.86474 | -2.89336 | 24738 ft | 300 kts | 279° |
| 2026-05-07 19:56 | 51.86914 | -2.92634 | 24788 ft | 303 kts | 279° |
| 2026-05-07 19:56 | 51.87360 | -2.95980 | 24782 ft | 307 kts | 279° |
| 2026-05-07 19:56 | 51.87814 | -2.99393 | 24786 ft | 309 kts | 279° |
| 2026-05-07 19:56 | 51.88264 | -3.02791 | 24786 ft | 312 kts | 279° |
| 2026-05-07 19:57 | 51.88717 | -3.06217 | 24790 ft | 315 kts | 279° |
| 2026-05-07 19:57 | 51.89178 | -3.09717 | 24781 ft | 317 kts | 279° |
| 2026-05-07 19:57 | 51.89636 | -3.13195 | 24785 ft | 319 kts | 279° |
| 2026-05-07 19:57 | 51.90101 | -3.16749 | 24778 ft | 322 kts | 279° |
| 2026-05-07 19:58 | 51.90563 | -3.20288 | 24774 ft | 324 kts | 279° |
| 2026-05-07 19:58 | 51.91032 | -3.23888 | 24777 ft | 325 kts | 279° |
| 2026-05-07 19:58 | 51.91498 | -3.27467 | 24772 ft | 327 kts | 279° |
| 2026-05-07 19:58 | 51.91968 | -3.31090 | 24773 ft | 328 kts | 279° |
| 2026-05-07 19:59 | 51.92435 | -3.34699 | 24768 ft | 330 kts | 279° |
| 2026-05-07 19:59 | 51.92902 | -3.38316 | 24764 ft | 331 kts | 279° |
| 2026-05-07 19:59 | 51.93376 | -3.42001 | 24768 ft | 331 kts | 279° |
| 2026-05-07 19:59 | 51.93844 | -3.45641 | 24766 ft | 332 kts | 279° |
| 2026-05-07 20:00 | 51.94317 | -3.49337 | 24760 ft | 333 kts | 279° |
| 2026-05-07 20:00 | 51.94784 | -3.52995 | 24763 ft | 334 kts | 279° |
| 2026-05-07 20:00 | 51.95252 | -3.56667 | 24769 ft | 334 kts | 279° |
| 2026-05-07 20:00 | 51.95719 | -3.60341 | 24762 ft | 335 kts | 279° |
| 2026-05-07 20:01 | 51.96190 | -3.64063 | 24769 ft | 335 kts | 279° |
| 2026-05-07 20:01 | 51.96654 | -3.67734 | 24770 ft | 335 kts | 278° |
| 2026-05-07 20:01 | 51.97122 | -3.71452 | 24760 ft | 336 kts | 278° |
| 2026-05-07 20:01 | 51.97587 | -3.75145 | 24775 ft | 336 kts | 278° |
| 2026-05-07 20:02 | 51.98057 | -3.78897 | 24770 ft | 337 kts | 278° |
| 2026-05-07 20:02 | 51.98519 | -3.82594 | 24736 ft | 338 kts | 278° |
| 2026-05-07 20:02 | 51.98989 | -3.86372 | 24461 ft | 347 kts | 278° |
| 2026-05-07 20:02 | 51.99475 | -3.90293 | 24208 ft | 354 kts | 278° |
| 2026-05-07 20:03 | 51.99961 | -3.94219 | 23984 ft | 360 kts | 279° |
| 2026-05-07 20:03 | 52.00458 | -3.98236 | 23750 ft | 364 kts | 279° |
| 2026-05-07 20:03 | 52.00954 | -4.02258 | 23511 ft | 368 kts | 279° |
| 2026-05-07 20:03 | 52.01460 | -4.06378 | 23230 ft | 371 kts | 279° |
| 2026-05-07 20:04 | 52.01962 | -4.10470 | 23073 ft | 371 kts | 279° |
| 2026-05-07 20:04 | 52.02462 | -4.14557 | 23026 ft | 369 kts | 279° |
| 2026-05-07 20:04 | 52.02962 | -4.18651 | 23015 ft | 365 kts | 278° |
| 2026-05-07 20:04 | 52.03452 | -4.22677 | 23017 ft | 362 kts | 278° |
| 2026-05-07 20:05 | 52.03936 | -4.26675 | 23017 ft | 360 kts | 278° |
| 2026-05-07 20:05 | 52.04412 | -4.30623 | 23017 ft | 358 kts | 278° |
| 2026-05-07 20:05 | 52.04886 | -4.34557 | 23035 ft | 356 kts | 278° |
| 2026-05-07 20:05 | 52.05361 | -4.38520 | 23016 ft | 354 kts | 278° |
| 2026-05-07 20:06 | 52.05828 | -4.42429 | 23022 ft | 353 kts | 278° |
| 2026-05-07 20:06 | 52.06291 | -4.46315 | 23020 ft | 352 kts | 278° |
| 2026-05-07 20:06 | 52.06756 | -4.50225 | 23019 ft | 351 kts | 278° |
| 2026-05-07 20:06 | 52.07218 | -4.54125 | 23038 ft | 350 kts | 278° |
| 2026-05-07 20:07 | 52.07674 | -4.57982 | 23022 ft | 349 kts | 278° |
| 2026-05-07 20:07 | 52.08126 | -4.61823 | 23020 ft | 348 kts | 278° |
| 2026-05-07 20:07 | 52.08582 | -4.65701 | 23026 ft | 348 kts | 278° |
| 2026-05-07 20:07 | 52.09033 | -4.69554 | 23018 ft | 347 kts | 278° |
| 2026-05-07 20:08 | 52.09486 | -4.73436 | 23018 ft | 347 kts | 278° |
| 2026-05-07 20:08 | 52.09933 | -4.77277 | 23023 ft | 346 kts | 278° |
| 2026-05-07 20:08 | 52.10375 | -4.81089 | 23022 ft | 346 kts | 278° |
| 2026-05-07 20:08 | 52.10823 | -4.84955 | 23020 ft | 345 kts | 278° |
| 2026-05-07 20:09 | 52.11265 | -4.88790 | 23023 ft | 345 kts | 278° |
| 2026-05-07 20:09 | 52.11704 | -4.92605 | 23024 ft | 344 kts | 278° |
| 2026-05-07 20:09 | 52.12142 | -4.96422 | 23019 ft | 344 kts | 278° |
| 2026-05-07 20:10 | 52.13030 | -5.04107 | 23016 ft | 344 kts | 281° |
| 2026-05-07 20:10 | 52.13984 | -5.07665 | 23017 ft | 350 kts | 303° |
| 2026-05-07 20:10 | 52.15706 | -5.10551 | 22646 ft | 365 kts | 322° |
| 2026-05-07 20:10 | 52.17906 | -5.12763 | 22201 ft | 377 kts | 327° |
| 2026-05-07 20:11 | 52.20192 | -5.14956 | 21661 ft | 388 kts | 327° |
| 2026-05-07 20:11 | 52.22563 | -5.17241 | 21175 ft | 396 kts | 327° |
| 2026-05-07 20:11 | 52.24929 | -5.19541 | 20697 ft | 402 kts | 327° |
| 2026-05-07 20:11 | 52.27329 | -5.21896 | 20222 ft | 407 kts | 326° |
| 2026-05-07 20:12 | 52.29785 | -5.24322 | 19753 ft | 411 kts | 326° |
| 2026-05-07 20:12 | 52.32226 | -5.26744 | 19283 ft | 413 kts | 326° |
| 2026-05-07 20:12 | 52.34672 | -5.29179 | 18826 ft | 415 kts | 326° |
| 2026-05-07 20:12 | 52.37145 | -5.31645 | 18364 ft | 412 kts | 326° |
| 2026-05-07 20:13 | 52.39574 | -5.34069 | 17854 ft | 408 kts | 326° |
| 2026-05-07 20:13 | 52.41998 | -5.36493 | 17325 ft | 406 kts | 326° |
| 2026-05-07 20:13 | 52.44381 | -5.38879 | 16823 ft | 403 kts | 326° |
| 2026-05-07 20:13 | 52.46775 | -5.41279 | 16317 ft | 401 kts | 326° |
| 2026-05-07 20:14 | 52.49130 | -5.43643 | 16056 ft | 395 kts | 326° |
| 2026-05-07 20:14 | 52.51472 | -5.45995 | 16008 ft | 389 kts | 326° |
| 2026-05-07 20:14 | 52.53745 | -5.48281 | 16000 ft | 383 kts | 326° |
| 2026-05-07 20:14 | 52.56055 | -5.50434 | 15991 ft | 380 kts | 334° |
| 2026-05-07 20:15 | 52.58528 | -5.51831 | 16012 ft | 377 kts | 341° |
| 2026-05-07 20:15 | 52.61050 | -5.53029 | 16003 ft | 374 kts | 341° |
| 2026-05-07 20:15 | 52.63503 | -5.54249 | 16001 ft | 371 kts | 340° |
| 2026-05-07 20:15 | 52.65977 | -5.55526 | 15998 ft | 369 kts | 340° |
| 2026-05-07 20:16 | 52.68436 | -5.56809 | 16000 ft | 367 kts | 340° |
| 2026-05-07 20:16 | 52.70789 | -5.58035 | 15972 ft | 344 kts | 340° |
| 2026-05-07 20:16 | 52.73007 | -5.59183 | 15829 ft | 321 kts | 340° |
| 2026-05-07 20:16 | 52.75097 | -5.60268 | 15182 ft | 315 kts | 340° |
| 2026-05-07 20:17 | 52.77198 | -5.61363 | 14153 ft | 323 kts | 340° |
| 2026-05-07 20:17 | 52.79359 | -5.62490 | 13506 ft | 325 kts | 340° |
| 2026-05-07 20:17 | 52.81585 | -5.63653 | 12996 ft | 345 kts | 340° |
| 2026-05-07 20:17 | 52.83863 | -5.64839 | 12442 ft | 334 kts | 340° |
| 2026-05-07 20:18 | 52.86024 | -5.65958 | 11912 ft | 320 kts | 340° |
| 2026-05-07 20:18 | 52.88099 | -5.67033 | 11387 ft | 308 kts | 340° |
| 2026-05-07 20:18 | 52.89445 | -5.67732 | 11088 ft | 300 kts | 340° |
| 2026-05-07 20:18 | 52.92042 | -5.69083 | 10519 ft | 288 kts | 340° |
| 2026-05-07 20:19 | 52.93307 | -5.69743 | 10237 ft | 284 kts | 340° |
| 2026-05-07 20:19 | 52.95174 | -5.70720 | 9825 ft | 282 kts | 340° |
| 2026-05-07 20:19 | 52.97067 | -5.71712 | 9371 ft | 285 kts | 340° |
| 2026-05-07 20:19 | 52.98979 | -5.72714 | 8921 ft | 288 kts | 340° |
| 2026-05-07 20:20 | 53.00874 | -5.73707 | 8481 ft | 286 kts | 340° |
| 2026-05-07 20:20 | 53.02762 | -5.74697 | 8036 ft | 285 kts | 341° |
| 2026-05-07 20:20 | 53.04659 | -5.75691 | 7599 ft | 284 kts | 340° |
| 2026-05-07 20:20 | 53.06557 | -5.76690 | 7170 ft | 284 kts | 341° |
| 2026-05-07 20:21 | 53.08425 | -5.77670 | 7010 ft | 282 kts | 340° |
| 2026-05-07 20:21 | 53.10296 | -5.78654 | 6980 ft | 283 kts | 341° |
| 2026-05-07 20:21 | 53.12187 | -5.79648 | 6973 ft | 283 kts | 340° |
| 2026-05-07 20:21 | 53.14056 | -5.80633 | 6978 ft | 284 kts | 341° |
| 2026-05-07 20:22 | 53.15919 | -5.81614 | 6761 ft | 280 kts | 340° |
| 2026-05-07 20:22 | 53.17764 | -5.82587 | 6438 ft | 270 kts | 340° |
| 2026-05-07 20:22 | 53.19504 | -5.83505 | 6110 ft | 259 kts | 340° |
| 2026-05-07 20:22 | 53.21201 | -5.84401 | 5776 ft | 250 kts | 340° |
| 2026-05-07 20:23 | 53.22822 | -5.85258 | 5451 ft | 241 kts | 340° |
| 2026-05-07 20:23 | 53.24395 | -5.86091 | 5132 ft | 235 kts | 340° |
| 2026-05-07 20:23 | 53.25941 | -5.86911 | 4819 ft | 231 kts | 340° |
| 2026-05-07 20:23 | 53.27460 | -5.87717 | 4516 ft | 229 kts | 340° |
| 2026-05-07 20:24 | 53.28988 | -5.88528 | 4204 ft | 228 kts | 339° |
| 2026-05-07 20:24 | 53.30486 | -5.89324 | 3896 ft | 228 kts | 339° |
| 2026-05-07 20:24 | 53.32007 | -5.90134 | 3601 ft | 228 kts | 339° |
| 2026-05-07 20:24 | 53.33514 | -5.90936 | 3284 ft | 228 kts | 339° |
| 2026-05-07 20:25 | 53.35026 | -5.91741 | 3058 ft | 224 kts | 339° |
| 2026-05-07 20:25 | 53.36527 | -5.92542 | 3031 ft | 231 kts | 339° |
| 2026-05-07 20:25 | 53.38056 | -5.93357 | 3005 ft | 227 kts | 339° |
| 2026-05-07 20:25 | 53.39422 | -5.94507 | 2976 ft | 217 kts | 309° |
| 2026-05-07 20:26 | 53.40096 | -5.96705 | 3018 ft | 213 kts | 285° |
| 2026-05-07 20:26 | 53.40465 | -5.99131 | 3018 ft | 219 kts | 281° |
| 2026-05-07 20:26 | 53.40751 | -6.01639 | 2944 ft | 218 kts | 276° |
| 2026-05-07 20:26 | 53.40913 | -6.04129 | 2697 ft | 215 kts | 274° |
| 2026-05-07 20:27 | 53.41041 | -6.06624 | 2401 ft | 211 kts | 273° |
| 2026-05-07 20:27 | 53.41166 | -6.09060 | 2115 ft | 210 kts | 273° |
| 2026-05-07 20:27 | 53.41296 | -6.11498 | 1826 ft | 209 kts | 273° |
| 2026-05-07 20:27 | 53.41425 | -6.13913 | 1558 ft | 211 kts | 273° |
| 2026-05-07 20:28 | 53.41556 | -6.16368 | 1272 ft | 206 kts | 273° |
| 2026-05-07 20:28 | 53.41681 | -6.18686 | 963 ft | 192 kts | 273° |
| 2026-05-07 20:28 | 53.41797 | -6.20836 | 723 ft | 179 kts | 274° |
| 2026-05-07 20:28 | 53.41905 | -6.22814 | 503 ft | 164 kts | 272° |
| 2026-05-07 20:29 | 53.42001 | -6.24601 | 282 ft | 143 kts | 273° |
| 2026-05-07 20:29 | 53.42082 | -6.26131 | 211 ft | 111 kts | 275° |
| 2026-05-07 20:29 | 53.42144 | -6.27244 | 211 ft | 88 kts | 275° |
| 2026-05-07 20:29 | 53.42198 | -6.28197 | 211 ft | 75 kts | 275° |
| 2026-05-07 20:30 | 53.42238 | -6.28943 | 216 ft | 24 kts | 277° |
| 2026-05-07 20:30 | 53.42290 | -6.29066 | 211 ft | 13 kts | 343° |
| 2026-05-07 20:30 | 53.42388 | -6.29040 | 210 ft | 16 kts | 44° |
| 2026-05-07 20:30 | 53.42409 | -6.28875 | 218 ft | 0 kts | 95° |
| 2026-05-07 20:31 | 53.42408 | -6.28864 | 218 ft | 6 kts | 95° |
| 2026-05-07 20:32 | 53.42399 | -6.28693 | 210 ft | 19 kts | 95° |
| 2026-05-07 20:32 | 53.42386 | -6.28471 | 210 ft | 19 kts | 95° |
| 2026-05-07 20:32 | 53.42375 | -6.28259 | 217 ft | 18 kts | 95° |
| 2026-05-07 20:32 | 53.42363 | -6.28050 | 215 ft | 18 kts | 95° |
| 2026-05-07 20:33 | 53.42352 | -6.27852 | 215 ft | 17 kts | 95° |
| 2026-05-07 20:33 | 53.42341 | -6.27658 | 210 ft | 16 kts | 95° |
| 2026-05-07 20:33 | 53.42331 | -6.27475 | 210 ft | 16 kts | 95° |
| 2026-05-07 20:33 | 53.42321 | -6.27297 | 218 ft | 15 kts | 95° |
| 2026-05-07 20:34 | 53.42312 | -6.27125 | 215 ft | 14 kts | 95° |
| 2026-05-07 20:34 | 53.42303 | -6.26962 | 212 ft | 14 kts | 95° |
| 2026-05-07 20:34 | 53.42295 | -6.26807 | 210 ft | 13 kts | 95° |
| 2026-05-07 20:34 | 53.42287 | -6.26657 | 210 ft | 13 kts | 95° |
| 2026-05-07 20:35 | 53.42278 | -6.26511 | 216 ft | 12 kts | 95° |
| 2026-05-07 20:35 | 53.42271 | -6.26367 | 213 ft | 12 kts | 95° |
| 2026-05-07 20:35 | 53.42263 | -6.26229 | 219 ft | 12 kts | 95° |
| 2026-05-07 20:35 | 53.42257 | -6.26096 | 210 ft | 11 kts | 88° |
| 2026-05-07 20:36 | 53.42275 | -6.25977 | 210 ft | 10 kts | 68° |
| 2026-05-07 20:36 | 53.42315 | -6.25880 | 213 ft | 10 kts | 46° |
| 2026-05-07 20:36 | 53.42364 | -6.25796 | 211 ft | 10 kts | 45° |
| 2026-05-07 20:36 | 53.42411 | -6.25715 | 210 ft | 10 kts | 46° |
| 2026-05-07 20:37 | 53.42457 | -6.25637 | 210 ft | 9 kts | 45° |
| 2026-05-07 20:37 | 53.42502 | -6.25563 | 210 ft | 6 kts | 45° |
| 2026-05-07 20:37 | 53.42509 | -6.25552 | 210 ft | 0 kts | 45° |
| 2026-05-07 20:39 | 53.42511 | -6.25548 | 204 ft | 4 kts | 45° |
| 2026-05-07 20:39 | 53.42571 | -6.25446 | 209 ft | 18 kts | 45° |
| 2026-05-07 20:40 | 53.42657 | -6.25298 | 214 ft | 18 kts | 48° |
| 2026-05-07 20:40 | 53.42741 | -6.25154 | 210 ft | 17 kts | 45° |
| 2026-05-07 20:40 | 53.42828 | -6.25028 | 215 ft | 16 kts | 39° |
| 2026-05-07 20:40 | 53.42904 | -6.24895 | 210 ft | 15 kts | 47° |
| 2026-05-07 20:41 | 53.42930 | -6.24845 | 213 ft | 4 kts | 48° |
| 2026-05-07 20:41 | 53.42954 | -6.24823 | 210 ft | 4 kts | 13° |
| 2026-05-07 20:41 | 53.42981 | -6.24817 | 210 ft | 4 kts | 7° |
| 2026-05-07 20:41 | 53.43002 | -6.24813 | 210 ft | 0 kts | 6° |